Time;durP1;ratioP1;P1;durP2;ratioP2;P2;SDS_P1;SDS_P2;PMS_P1;PMS_P2;Temp;Humidity;BMP_temperature;BMP_pressure;BME280_temperature;BME280_humidity;BME280_pressure;Samples;Min_cycle;Max_cycle;Signal;HPM_P1;HPM_P2
2022/08/28 00:00:08;;;;;;;81.97;78.72;;;;;;;15.42;84.88;101925.19;5071778;28;20029;-75
2022/08/28 00:02:34;;;;;;;82.45;79.38;;;;;;;15.36;84.60;101917.00;5077921;28;20477;-75
2022/08/28 00:05:00;;;;;;;90.43;86.82;;;;;;;15.31;84.12;101911.31;5078834;28;20059;-75
2022/08/28 00:07:26;;;;;;;95.60;91.95;;;;;;;15.28;83.94;101907.13;5077314;28;20020;-75
2022/08/28 00:09:51;;;;;;;93.25;89.15;;;;;;;15.34;84.29;101919.00;5077777;28;20024;-75
2022/08/28 00:12:17;;;;;;;100.40;96.60;;;;;;;15.35;83.74;101929.47;5076542;28;20020;-75
2022/08/28 00:14:42;;;;;;;92.38;88.88;;;;;;;15.35;83.71;101924.16;5077153;28;20032;-75
2022/08/28 00:17:08;;;;;;;95.35;91.78;;;;;;;15.37;84.09;101927.50;5079173;28;20237;-75
2022/08/28 00:19:33;;;;;;;87.60;84.18;;;;;;;15.26;84.13;101911.78;5081239;28;20052;-75
2022/08/28 00:21:59;;;;;;;90.80;87.22;;;;;;;15.12;84.22;101893.72;5077685;28;20040;-75
2022/08/28 00:24:24;;;;;;;84.82;81.43;;;;;;;15.23;84.27;101918.25;5076116;28;20499;-75
2022/08/28 00:29:34;;;;;;;92.28;88.82;;;;;;;15.26;84.44;101926.91;5077394;28;20043;-75
2022/08/28 00:32:00;;;;;;;89.15;85.63;;;;;;;15.15;84.75;101914.69;5078271;28;20032;-75
2022/08/28 00:34:27;;;;;;;84.57;81.07;;;;;;;15.17;84.77;101926.81;5079085;28;20117;-75
2022/08/28 00:36:52;;;;;;;84.25;80.82;;;;;;;15.04;85.16;101902.47;5074190;28;20021;-75
2022/08/28 00:39:18;;;;;;;77.00;73.93;;;;;;;15.12;85.48;101929.13;5057635;28;20040;-75
2022/08/28 00:41:43;;;;;;;89.28;85.57;;;;;;;15.02;85.26;101925.69;5078629;28;20028;-75
2022/08/28 00:44:15;;;;;;;73.20;70.32;;;;;;;14.99;86.48;101926.03;5077766;28;20036;-75
2022/08/28 00:46:43;;;;;;;76.82;73.93;;;;;;;14.96;85.36;101916.53;5072473;28;20031;-75
2022/08/28 00:49:10;;;;;;;87.85;84.53;;;;;;;14.87;85.95;101913.94;5075228;28;20082;-75
2022/08/28 00:54:21;;;;;;;72.22;69.38;;;;;;;14.82;86.14;101909.91;5077777;28;20094;-75
2022/08/28 00:56:48;;;;;;;68.78;66.05;;;;;;;14.77;86.85;101909.53;5076123;28;20039;-75
2022/08/28 00:59:17;;;;;;;67.75;65.10;;;;;;;14.69;86.42;101892.69;5075904;28;20020;-75
2022/08/28 01:01:45;;;;;;;64.35;61.88;;;;;;;14.79;86.69;101915.53;5079959;28;20485;-75
2022/08/28 01:04:15;;;;;;;68.40;65.68;;;;;;;14.74;87.29;101906.34;5079898;28;20174;-75
2022/08/28 01:06:42;;;;;;;71.33;68.43;;;;;;;14.51;86.68;101882.84;5086450;28;20027;-75
2022/08/28 01:09:10;;;;;;;74.75;71.70;;;;;;;14.67;87.16;101906.13;5082794;28;20133;-74
2022/08/28 01:11:36;;;;;;;68.70;65.72;;;;;;;14.65;87.69;101901.94;5083650;28;20052;-74
2022/08/28 01:14:04;;;;;;;72.20;69.03;;;;;;;14.53;87.57;101890.69;5079776;28;20028;-74
2022/08/28 01:16:30;;;;;;;72.22;69.50;;;;;;;14.58;88.09;101904.38;5064649;28;20035;-74
2022/08/28 01:18:59;;;;;;;66.72;64.07;;;;;;;14.54;88.10;101897.66;5080493;28;20085;-75
2022/08/28 01:21:43;;;;;;;68.20;65.38;;;;;;;14.52;88.03;101891.66;5083420;28;20563;-75
2022/08/28 01:24:13;;;;;;;68.68;65.70;;;;;;;14.56;87.99;101901.03;5081332;28;20114;-75
2022/08/28 01:26:39;;;;;;;62.72;60.25;;;;;;;14.44;87.33;101881.78;5080935;28;20097;-75
2022/08/28 01:29:07;;;;;;;64.30;61.78;;;;;;;14.45;87.37;101879.97;5069063;28;20017;-75
2022/08/28 01:31:33;;;;;;;65.55;62.80;;;;;;;14.56;87.38;101901.84;5082537;28;20031;-75
2022/08/28 01:33:59;;;;;;;66.05;63.22;;;;;;;14.51;86.72;101895.31;5081706;28;20059;-75
2022/08/28 01:36:25;;;;;;;68.25;65.38;;;;;;;14.50;87.11;101883.00;5084453;28;20070;-75
2022/08/28 01:39:23;;;;;;;66.72;64.18;;;;;;;14.67;86.27;101897.31;5081016;28;20037;-75
2022/08/28 01:41:51;;;;;;;69.40;66.65;;;;;;;14.67;86.73;101892.81;5083935;28;20036;-75
2022/08/28 01:44:19;;;;;;;64.13;61.53;;;;;;;14.74;86.75;101901.88;5069450;28;20024;-75
2022/08/28 01:46:45;;;;;;;75.82;72.88;;;;;;;14.74;85.92;101901.88;5085415;28;20039;-75
2022/08/28 01:49:11;;;;;;;84.78;81.32;;;;;;;14.64;85.15;101884.34;5075164;28;20028;-75
2022/08/28 01:51:40;;;;;;;85.28;81.85;;;;;;;14.77;85.45;101896.25;5079703;28;20434;-74
2022/08/28 01:54:06;;;;;;;87.82;84.47;;;;;;;14.77;85.56;101893.59;5080471;28;20035;-74
2022/08/28 01:56:32;;;;;;;87.47;84.05;;;;;;;14.76;86.30;101905.22;5079195;28;20039;-74
2022/08/28 01:59:01;;;;;;;83.78;80.38;;;;;;;14.72;86.43;101900.34;5079565;28;20036;-74
2022/08/28 02:01:26;;;;;;;82.03;78.93;;;;;;;14.68;86.81;101899.84;5077683;28;20477;-75
2022/08/28 02:03:52;;;;;;;80.80;77.40;;;;;;;14.67;86.54;101898.13;5084115;28;20031;-75
2022/08/28 02:06:18;;;;;;;79.00;75.95;;;;;;;14.60;87.27;101900.56;5076207;28;20489;-75
2022/08/28 02:08:44;;;;;;;74.93;72.03;;;;;;;14.52;88.06;101902.28;5083628;28;20039;-75
2022/08/28 02:11:11;;;;;;;70.20;67.47;;;;;;;14.53;88.43;101901.31;5081288;28;20034;-75
2022/08/28 02:13:37;;;;;;;70.88;67.68;;;;;;;14.47;89.05;101909.88;5081649;28;20036;-74
2022/08/28 02:16:06;;;;;;;63.20;60.70;;;;;;;14.43;88.70;101903.19;5081832;28;20025;-75
2022/08/28 02:18:31;;;;;;;67.88;65.00;;;;;;;14.27;88.48;101888.75;5091041;28;20440;-75
2022/08/28 02:20:57;;;;;;;64.05;61.55;;;;;;;14.34;89.42;101904.91;5084250;28;20043;-75
2022/08/28 02:23:22;;;;;;;65.93;63.35;;;;;;;14.31;89.11;101905.22;5086818;28;20404;-75
2022/08/28 02:25:47;;;;;;;66.50;63.90;;;;;;;14.28;88.96;101900.19;5084206;28;20228;-75
2022/08/28 02:28:13;;;;;;;65.65;63.00;;;;;;;14.18;87.99;101886.97;5084875;28;20087;-74
2022/08/28 02:30:39;;;;;;;70.25;67.53;;;;;;;14.28;87.93;101908.16;5068741;28;20043;-74
2022/08/28 02:33:04;;;;;;;71.93;69.15;;;;;;;14.26;87.79;101910.94;5079522;28;20492;-75
2022/08/28 02:35:30;;;;;;;69.43;66.43;;;;;;;14.22;87.24;101900.78;5082873;28;20040;-75
2022/08/28 02:37:55;;;;;;;67.53;64.95;;;;;;;14.13;86.96;101886.56;5063441;28;20107;-75
2022/08/28 02:40:23;;;;;;;67.35;64.55;;;;;;;14.18;87.91;101906.41;5084143;28;20115;-74
2022/08/28 02:42:49;;;;;;;65.28;62.53;;;;;;;14.18;88.28;101908.22;5088409;28;20036;-75
2022/08/28 02:45:15;;;;;;;68.53;65.93;;;;;;;14.03;88.18;101888.47;5077512;28;20060;-75
2022/08/28 02:47:43;;;;;;;66.30;63.78;;;;;;;14.03;88.55;101891.13;5080973;28;20066;-74
2022/08/28 02:50:11;;;;;;;66.20;63.60;;;;;;;14.01;88.86;101893.06;5089224;28;20027;-74
2022/08/28 02:52:37;;;;;;;61.88;59.35;;;;;;;14.06;89.11;101901.41;5092585;28;20077;-74
2022/08/28 02:55:08;;;;;;;70.38;67.55;;;;;;;14.08;88.88;101910.06;5082179;28;20040;-74
2022/08/28 02:57:34;;;;;;;64.88;62.25;;;;;;;14.08;89.01;101915.38;5088510;28;20565;-74
2022/08/28 02:59:59;;;;;;;64.82;62.20;;;;;;;14.08;89.09;101908.25;5082257;28;20078;-74
2022/08/28 03:02:25;;;;;;;67.97;65.38;;;;;;;14.06;89.19;101896.94;5059823;28;20020;-74
2022/08/28 03:04:51;;;;;;;73.70;70.57;;;;;;;14.14;89.12;101906.84;5069154;28;20138;-74
2022/08/28 03:07:18;;;;;;;68.97;66.15;;;;;;;14.15;89.07;101912.00;5084381;28;20032;-74
2022/08/28 03:09:43;;;;;;;69.28;66.68;;;;;;;14.09;88.51;101887.84;5085387;28;20128;-74
2022/08/28 03:12:11;;;;;;;67.63;64.95;;;;;;;14.28;88.82;101905.50;5086420;28;20066;-74
2022/08/28 03:14:37;;;;;;;69.47;66.75;;;;;;;14.32;89.16;101905.03;5074364;28;20119;-74
2022/08/28 03:17:03;;;;;;;71.90;69.10;;;;;;;14.30;88.72;101903.53;5085465;28;20113;-74
2022/08/28 03:19:28;;;;;;;65.20;62.70;;;;;;;14.39;88.49;101910.59;5079344;28;20032;-74
2022/08/28 03:21:55;;;;;;;73.53;70.65;;;;;;;14.39;88.87;101911.47;5082097;28;20016;-74
2022/08/28 03:24:20;;;;;;;70.25;67.10;;;;;;;14.36;89.26;101917.06;5082913;28;20059;-74
2022/08/28 03:26:46;;;;;;;68.82;66.15;;;;;;;14.27;88.41;101902.00;5089719;28;20056;-74
2022/08/28 03:29:11;;;;;;;74.65;71.80;;;;;;;14.29;88.97;101910.66;5084858;28;20047;-74
2022/08/28 03:31:37;;;;;;;65.85;63.25;;;;;;;14.30;89.52;101920.28;5085145;28;20473;-74
2022/08/28 03:34:04;;;;;;;71.40;68.60;;;;;;;14.30;88.26;101916.81;5079671;28;20095;-74
2022/08/28 03:36:30;;;;;;;77.82;74.68;;;;;;;14.32;87.53;101922.81;5092664;28;20063;-74
2022/08/28 03:38:59;;;;;;;83.22;80.07;;;;;;;14.32;87.78;101917.50;5068259;28;20025;-74
2022/08/28 03:41:27;;;;;;;83.22;79.82;;;;;;;14.30;87.91;101917.63;5088651;28;20020;-75
2022/08/28 03:43:56;;;;;;;94.90;90.75;;;;;;;14.28;86.94;101919.59;5078887;28;20020;-75
2022/08/28 03:46:22;;;;;;;92.57;89.18;;;;;;;14.29;87.46;101917.81;5087322;28;20499;-75
2022/08/28 03:48:49;;;;;;;90.22;86.82;;;;;;;14.36;87.27;101925.00;5084283;28;20028;-75
2022/08/28 03:51:26;;;;;;;84.75;81.45;;;;;;;14.33;87.58;101905.91;5092990;28;20028;-75
2022/08/28 03:53:51;;;;;;;91.97;88.38;;;;;;;14.43;87.53;101919.94;5084773;28;20028;-75
2022/08/28 03:56:21;;;;;;;96.97;93.28;;;;;;;14.47;87.48;101920.50;5093998;28;20147;-75
2022/08/28 03:58:50;;;;;;;96.30;92.40;;;;;;;14.46;87.88;101919.66;5089310;28;20052;-75
2022/08/28 04:01:16;;;;;;;87.30;84.00;;;;;;;14.45;87.92;101917.16;5087845;28;20492;-76
2022/08/28 04:03:41;;;;;;;95.80;92.10;;;;;;;14.39;86.82;101919.44;5086057;28;20119;-75
2022/08/28 04:06:07;;;;;;;100.30;96.28;;;;;;;14.40;86.91;101917.59;5081467;28;20074;-75
2022/08/28 04:08:32;;;;;;;106.43;102.28;;;;;;;14.27;86.90;101899.34;5089277;28;20025;-75
2022/08/28 04:11:00;;;;;;;99.07;95.40;;;;;;;14.33;86.35;101898.78;5089530;28;20028;-75
2022/08/28 04:13:26;;;;;;;96.57;92.93;;;;;;;14.48;86.85;101927.47;5087728;28;20169;-75
2022/08/28 04:15:59;;;;;;;101.70;97.85;;;;;;;14.52;86.36;101918.22;5083581;28;20035;-74
2022/08/28 04:18:26;;;;;;;95.00;91.22;;;;;;;14.54;86.24;101913.59;5083342;28;20021;-74
2022/08/28 04:21:04;;;;;;;100.15;96.25;;;;;;;14.44;86.16;101895.06;5089265;28;20046;-74
2022/08/28 04:23:29;;;;;;;95.95;91.95;;;;;;;14.60;86.38;101918.34;5086563;28;20051;-74
2022/08/28 04:25:55;;;;;;;92.88;89.38;;;;;;;14.61;86.36;101933.28;5084068;28;20032;-74
2022/08/28 04:28:21;;;;;;;94.05;90.50;;;;;;;14.57;86.74;101927.44;5089878;28;20072;-74
2022/08/28 04:30:50;;;;;;;96.90;93.28;;;;;;;14.56;86.44;101935.56;5086574;28;20484;-74
2022/08/28 04:33:16;;;;;;;81.25;77.65;;;;;;;14.53;86.15;101941.16;5078699;28;20020;-74
2022/08/28 04:35:42;;;;;;;84.78;81.50;;;;;;;14.49;86.67;101940.59;5082525;28;20039;-74
2022/08/28 04:38:07;;;;;;;92.53;89.05;;;;;;;14.44;87.80;101944.69;5085741;28;20024;-74
2022/08/28 04:40:32;;;;;;;105.95;101.78;;;;;;;14.36;87.84;101925.00;5077642;28;20040;-74
2022/08/28 04:42:58;;;;;;;105.05;100.75;;;;;;;14.45;87.77;101946.38;5045798;28;20032;-74
2022/08/28 04:45:23;;;;;;;103.90;100.05;;;;;;;14.44;88.54;101947.34;5083962;28;20168;-74
2022/08/28 04:47:48;;;;;;;94.00;90.35;;;;;;;14.41;88.80;101951.13;5088457;28;20028;-74
2022/08/28 04:50:14;;;;;;;87.72;84.43;;;;;;;14.29;89.13;101931.91;5088897;28;20119;-74
2022/08/28 04:52:41;;;;;;;93.88;90.30;;;;;;;14.38;88.40;101949.59;5086199;28;20055;-74
2022/08/28 04:55:07;;;;;;;87.22;83.78;;;;;;;14.41;88.53;101940.50;5090063;28;20381;-75
2022/08/28 04:57:33;;;;;;;97.05;93.45;;;;;;;14.58;88.65;101954.84;5078932;28;20036;-75
2022/08/28 04:59:58;;;;;;;98.30;94.32;;;;;;;14.66;88.44;101946.97;5077893;28;20028;-75
2022/08/28 05:02:24;;;;;;;106.57;102.38;;;;;;;14.69;88.72;101936.03;5079071;28;20069;-74
2022/08/28 05:04:49;;;;;;;101.00;96.93;;;;;;;14.85;88.19;101953.13;5083143;28;20169;-74
2022/08/28 05:07:14;;;;;;;108.22;103.40;;;;;;;14.86;87.62;101958.28;5084497;28;20103;-74
2022/08/28 05:09:40;;;;;;;101.10;97.15;;;;;;;14.77;87.58;101949.41;5082323;28;20059;-74
2022/08/28 05:12:05;;;;;;;102.25;98.38;;;;;;;14.62;88.31;101923.50;5074943;28;20021;-74
2022/08/28 05:14:31;;;;;;;105.75;101.80;;;;;;;14.90;88.27;101964.16;5077279;28;20074;-74
2022/08/28 05:16:57;;;;;;;106.55;102.32;;;;;;;14.99;88.53;101973.88;5075032;28;20074;-74
2022/08/28 05:19:24;;;;;;;100.70;96.80;;;;;;;14.99;89.07;101963.25;5078387;28;20033;-74
2022/08/28 05:21:51;;;;;;;105.68;101.68;;;;;;;15.19;88.54;101975.38;5075194;28;20025;-74
2022/08/28 05:24:17;;;;;;;109.20;104.80;;;;;;;15.21;88.50;101962.75;5079400;28;20031;-74
2022/08/28 05:26:43;;;;;;;94.75;90.93;;;;;;;15.40;88.00;101980.38;5067014;28;20048;-74
2022/08/28 05:29:09;;;;;;;87.30;83.53;;;;;;;15.52;87.25;101986.28;5061947;28;20020;-74
2022/08/28 05:31:37;;;;;;;76.30;73.32;;;;;;;15.55;87.09;101983.34;5078972;28;20024;-74
2022/08/28 05:34:04;;;;;;;57.58;55.35;;;;;;;15.56;85.59;101976.19;5074105;28;20028;-74
2022/08/28 05:36:36;;;;;;;54.05;52.03;;;;;;;15.49;85.15;101970.66;5077187;28;20028;-74
2022/08/28 05:39:04;;;;;;;58.38;55.67;;;;;;;15.53;83.50;101974.66;5077894;28;20380;-74
2022/08/28 05:41:30;;;;;;;68.07;65.40;;;;;;;15.43;81.73;101960.63;5078337;28;20571;-74
2022/08/28 05:43:58;;;;;;;67.47;64.78;;;;;;;15.37;80.78;101961.22;5061087;28;20063;-74
2022/08/28 05:46:24;;;;;;;63.13;60.78;;;;;;;15.41;80.50;101973.22;5075547;28;20031;-74
2022/08/28 05:48:49;;;;;;;59.13;56.72;;;;;;;15.29;79.92;101969.16;5074565;28;20073;-74
2022/08/28 05:51:19;;;;;;;62.33;60.03;;;;;;;15.32;80.44;101976.81;5080443;28;20028;-75
2022/08/28 05:53:45;;;;;;;58.88;56.58;;;;;;;15.31;80.88;101972.47;5077148;28;20029;-74
2022/08/28 05:56:13;;;;;;;64.47;62.03;;;;;;;15.30;80.57;101984.13;5088784;28;20384;-74
2022/08/28 05:58:39;;;;;;;58.78;56.47;;;;;;;15.29;80.43;101977.97;5078066;28;20028;-74
2022/08/28 06:01:05;;;;;;;56.85;54.75;;;;;;;15.37;80.57;101980.72;5087569;28;20032;-74
2022/08/28 06:03:31;;;;;;;62.08;59.67;;;;;;;15.37;80.23;101985.16;5084671;28;20028;-74
2022/08/28 06:05:59;;;;;;;59.45;57.10;;;;;;;15.39;80.60;101969.88;5088478;28;20454;-75
2022/08/28 06:08:25;;;;;;;61.70;58.92;;;;;;;15.56;80.75;101987.66;5081241;28;20070;-75
2022/08/28 06:10:50;;;;;;;59.58;56.67;;;;;;;15.61;81.36;101984.53;5077750;28;20016;-75
2022/08/28 06:13:16;;;;;;;58.17;55.75;;;;;;;15.68;81.71;101985.59;5079735;28;20023;-76
2022/08/28 06:15:42;;;;;;;59.50;57.20;;;;;;;15.69;80.51;101991.75;5085297;28;20035;-75
2022/08/28 06:18:08;;;;;;;61.55;59.10;;;;;;;15.76;80.77;101988.31;5082937;28;20016;-75
2022/08/28 06:20:40;;;;;;;51.95;49.95;;;;;;;15.81;81.65;101986.03;5076789;28;20116;-75
2022/08/28 06:23:06;;;;;;;59.00;56.60;;;;;;;15.87;81.94;101981.91;5059951;28;20028;-75
2022/08/28 06:25:38;;;;;;;58.75;56.40;;;;;;;16.03;81.22;101990.00;5083975;28;20030;-76
2022/08/28 06:28:06;;;;;;;59.15;56.45;;;;;;;16.16;80.19;101992.22;5077419;28;20504;-75
2022/08/28 06:30:34;;;;;;;58.45;56.17;;;;;;;16.34;79.68;101996.63;5082220;28;20036;-75
2022/08/28 06:32:59;;;;;;;51.78;49.55;;;;;;;16.41;77.65;101998.50;5075918;28;20126;-75
2022/08/28 06:35:25;;;;;;;49.88;48.00;;;;;;;16.51;77.56;101997.53;5074128;28;20024;-75
2022/08/28 06:37:50;;;;;;;46.03;44.25;;;;;;;16.57;78.51;102003.06;5081531;28;20028;-75
2022/08/28 06:40:15;;;;;;;50.22;48.20;;;;;;;16.70;77.70;102004.41;5086114;28;20039;-75
2022/08/28 06:42:41;;;;;;;50.03;47.47;;;;;;;16.75;76.14;102005.63;5081447;28;20035;-75
2022/08/28 06:45:07;;;;;;;54.47;52.38;;;;;;;16.81;76.20;102005.00;5064829;28;20032;-75
2022/08/28 06:47:32;;;;;;;58.38;56.08;;;;;;;16.99;76.16;102010.19;5083129;28;20066;-75
2022/08/28 06:49:57;;;;;;;61.63;59.22;;;;;;;17.24;75.01;102002.22;5081199;28;20021;-75
2022/08/28 06:52:23;;;;;;;68.53;65.90;;;;;;;17.34;74.07;102005.56;5083996;28;20067;-75
2022/08/28 06:54:48;;;;;;;63.70;61.22;;;;;;;17.42;74.21;101997.56;5077505;28;20447;-75
2022/08/28 06:57:13;;;;;;;65.03;62.60;;;;;;;17.64;75.34;102008.56;5080835;28;20465;-75
2022/08/28 06:59:39;;;;;;;65.15;62.72;;;;;;;17.76;74.80;102004.53;5075148;28;20028;-75
2022/08/28 07:02:05;;;;;;;68.88;66.28;;;;;;;17.88;74.97;102002.41;5089016;28;20027;-75
2022/08/28 07:04:31;;;;;;;75.43;72.57;;;;;;;18.02;72.47;102008.88;5086390;28;20031;-75
2022/08/28 07:06:56;;;;;;;67.13;64.38;;;;;;;18.38;71.26;101995.03;5091376;28;20032;-75
2022/08/28 07:09:23;;;;;;;67.13;64.43;;;;;;;19.03;69.67;102017.94;5070224;28;20115;-76
2022/08/28 07:11:48;;;;;;;64.88;62.42;;;;;;;19.69;68.76;102003.06;5082440;28;20029;-75
2022/08/28 07:14:14;;;;;;;38.78;36.92;;;;;;;20.48;67.24;102010.56;5088047;28;20030;-75
2022/08/28 07:16:40;;;;;;;27.27;26.05;;;;;;;21.18;64.69;102016.31;5082488;28;20031;-75
2022/08/28 07:19:07;;;;;;;24.23;23.13;;;;;;;21.92;61.11;102010.50;5085559;28;20036;-75
2022/08/28 07:21:34;;;;;;;23.65;22.65;;;;;;;22.47;60.83;102026.78;5082321;28;20106;-75
2022/08/28 07:24:02;;;;;;;26.05;24.95;;;;;;;22.48;60.06;102025.75;5081500;28;20083;-75
2022/08/28 07:26:27;;;;;;;26.60;25.48;;;;;;;21.78;61.24;102025.72;5068817;28;20044;-75
2022/08/28 07:28:54;;;;;;;37.17;35.47;;;;;;;21.62;63.24;102031.38;5085690;28;20499;-75
2022/08/28 07:31:24;;;;;;;35.75;34.25;;;;;;;22.16;60.78;102032.56;5086549;28;20519;-75
2022/08/28 07:33:51;;;;;;;33.92;32.58;;;;;;;22.63;59.82;102035.53;5081451;28;20512;-76
2022/08/28 07:36:20;;;;;;;31.00;29.80;;;;;;;23.27;58.21;102029.69;5075380;28;20443;-77
2022/08/28 07:38:46;;;;;;;25.88;24.83;;;;;;;23.53;56.66;102028.88;5087099;28;20017;-75
2022/08/28 07:41:18;;;;;;;31.88;30.58;;;;;;;23.41;57.13;102042.16;5082101;28;20080;-76
2022/08/28 07:46:28;;;;;;;24.15;23.17;;;;;;;24.93;54.00;102047.41;5084088;28;20050;-75
2022/08/28 07:48:56;;;;;;;23.83;22.83;;;;;;;25.38;52.25;102025.72;5083147;28;20127;-76
2022/08/28 07:51:22;;;;;;;19.73;18.73;;;;;;;26.25;51.44;102046.56;5063771;28;20031;-76
2022/08/28 07:53:47;;;;;;;22.05;20.95;;;;;;;26.80;50.38;102056.53;5088071;28;20028;-75
2022/08/28 07:56:12;;;;;;;19.58;18.38;;;;;;;27.55;49.28;102055.22;5082440;28;20548;-75
2022/08/28 07:58:38;;;;;;;17.05;16.35;;;;;;;27.88;48.20;102060.91;5047342;28;20059;-76
2022/08/28 08:01:03;;;;;;;19.02;18.05;;;;;;;27.90;47.20;102053.34;5080246;28;20040;-76
2022/08/28 08:03:30;;;;;;;24.23;22.98;;;;;;;27.66;46.96;102040.84;5083209;28;20035;-76
2022/08/28 08:06:01;;;;;;;20.92;20.13;;;;;;;28.59;46.95;102070.84;5064870;28;20040;-76
2022/08/28 08:08:27;;;;;;;21.05;20.17;;;;;;;28.25;46.50;102076.09;5081982;28;20051;-75
2022/08/28 08:11:04;;;;;;;22.50;21.25;;;;;;;28.17;46.12;102066.41;5079489;28;20039;-76
2022/08/28 08:13:31;;;;;;;23.65;22.55;;;;;;;28.33;47.16;102056.72;5063869;28;20090;-76
2022/08/28 08:16:05;;;;;;;21.75;20.73;;;;;;;28.97;46.57;102067.50;5081684;28;20048;-76
2022/08/28 08:18:30;;;;;;;22.63;21.63;;;;;;;29.28;44.46;102071.59;5082968;28;20016;-76
2022/08/28 08:20:56;;;;;;;22.23;21.38;;;;;;;29.16;44.52;102054.56;5081522;28;20102;-76
2022/08/28 08:23:22;;;;;;;29.08;27.75;;;;;;;29.92;44.21;102067.72;5080221;28;20039;-76
2022/08/28 08:25:58;;;;;;;27.38;26.33;;;;;;;30.32;43.46;102074.81;5083353;28;20107;-76
2022/08/28 08:28:24;;;;;;;26.67;25.23;;;;;;;30.89;43.14;102070.84;5063195;28;20047;-76
2022/08/28 08:31:00;;;;;;;28.58;27.05;;;;;;;31.32;42.89;102069.88;5078793;28;20027;-76
2022/08/28 08:33:25;;;;;;;27.50;26.40;;;;;;;32.59;40.61;102066.28;5078735;28;20107;-76
2022/08/28 08:35:51;;;;;;;31.15;29.65;;;;;;;31.91;41.83;102060.75;5078612;28;20460;-76
2022/08/28 08:38:16;;;;;;;27.65;26.52;;;;;;;30.79;42.64;102081.59;5063532;28;20032;-76
2022/08/28 08:40:41;;;;;;;28.65;27.52;;;;;;;30.41;42.74;102091.53;5075273;28;20036;-77
2022/08/28 08:43:08;;;;;;;23.98;22.77;;;;;;;29.28;45.60;102084.38;5060720;28;20380;-77
2022/08/28 08:45:35;;;;;;;18.77;17.48;;;;;;;28.51;45.79;102077.47;5072934;28;20093;-77
2022/08/28 08:48:01;;;;;;;17.65;16.92;;;;;;;27.21;48.44;102082.84;5079970;28;20507;-77
2022/08/28 08:50:33;;;;;;;15.32;14.65;;;;;;;27.04;48.73;102082.63;5075334;28;20024;-76
2022/08/28 08:53:26;;;;;;;16.52;15.73;;;;;;;27.97;47.30;102079.56;5078294;28;20047;-76
2022/08/28 08:55:55;;;;;;;20.90;20.02;;;;;;;29.41;45.39;102075.88;5074304;28;20436;-77
2022/08/28 08:58:21;;;;;;;26.80;25.55;;;;;;;30.68;43.79;102075.22;5080597;28;20080;-76
2022/08/28 09:01:13;;;;;;;27.55;26.45;;;;;;;31.54;41.36;102072.53;5075367;28;20119;-76
2022/08/28 09:04:24;;;;;;;30.00;28.60;;;;;;;32.24;41.23;102080.63;5085103;28;20038;-77
2022/08/28 09:07:17;;;;;;;31.90;30.60;;;;;;;32.93;40.58;102086.88;5073826;28;20043;-76
2022/08/28 09:09:48;;;;;;;32.30;31.05;;;;;;;32.59;40.15;102087.34;5077008;28;20020;-76
2022/08/28 09:12:21;;;;;;;29.17;27.77;;;;;;;31.81;40.99;102079.81;5082447;28;20031;-76
2022/08/28 09:15:07;;;;;;;26.40;25.17;;;;;;;30.43;43.17;102086.66;5078323;28;20024;-77
2022/08/28 09:17:37;;;;;;;20.65;19.70;;;;;;;29.21;44.75;102089.97;5070476;28;20020;-76
2022/08/28 09:20:07;;;;;;;17.52;16.77;;;;;;;28.27;46.18;102088.38;5074214;28;20029;-76
2022/08/28 09:22:33;;;;;;;15.63;14.93;;;;;;;26.99;47.94;102096.06;5081557;28;20023;-76
2022/08/28 09:24:59;;;;;;;14.25;13.65;;;;;;;26.32;49.57;102084.38;5071873;28;20028;-76
2022/08/28 09:27:31;;;;;;;21.02;20.23;;;;;;;26.32;49.58;102092.47;5075543;28;20147;-76
2022/08/28 09:30:20;;;;;;;17.73;17.02;;;;;;;26.34;50.32;102084.97;5073250;28;20217;-76
2022/08/28 09:32:59;;;;;;;20.27;19.10;;;;;;;26.79;49.67;102084.66;5080970;28;20150;-76
2022/08/28 09:35:28;;;;;;;24.33;23.38;;;;;;;28.39;47.78;102082.06;5072815;28;20029;-76
2022/08/28 09:37:55;;;;;;;22.45;21.52;;;;;;;29.61;44.83;102088.16;5077743;28;20551;-76
2022/08/28 09:43:27;;;;;;;26.55;25.35;;;;;;;31.19;41.89;102094.06;5055483;28;20392;-76
2022/08/28 09:46:11;;;;;;;26.15;24.73;;;;;;;29.92;42.50;102095.78;5072989;28;20016;-76
2022/08/28 09:48:36;;;;;;;23.00;21.95;;;;;;;29.02;45.56;102096.66;5078520;28;20136;-76
2022/08/28 09:51:11;;;;;;;20.30;19.50;;;;;;;28.98;45.37;102100.91;5071944;28;20049;-76
2022/08/28 09:53:53;;;;;;;14.05;13.45;;;;;;;27.87;45.45;102094.53;5063769;28;20116;-76
2022/08/28 09:56:29;;;;;;;15.07;14.27;;;;;;;27.08;46.85;102099.25;5080110;28;20036;-76
2022/08/28 09:58:58;;;;;;;17.17;16.33;;;;;;;27.35;47.96;102088.06;5074772;28;20477;-76
2022/08/28 10:01:46;;;;;;;20.67;19.67;;;;;;;29.66;44.63;102097.25;5075097;28;20020;-76
2022/08/28 10:04:14;;;;;;;21.45;20.52;;;;;;;31.28;43.09;102096.03;5073693;28;20024;-76
2022/08/28 10:06:42;;;;;;;22.30;21.40;;;;;;;30.98;41.88;102101.19;5073263;28;20020;-76
2022/08/28 10:09:31;;;;;;;25.77;24.65;;;;;;;30.76;41.84;102104.75;5076141;28;20031;-76
2022/08/28 10:12:35;;;;;;;26.73;25.45;;;;;;;31.94;40.69;102103.09;5076137;28;20112;-76
2022/08/28 10:15:29;;;;;;;30.55;29.35;;;;;;;33.37;39.90;102102.81;5077018;28;20042;-76
2022/08/28 10:18:19;;;;;;;29.55;28.20;;;;;;;32.70;38.59;102105.41;5077626;28;20059;-76
2022/08/28 10:20:48;;;;;;;25.83;24.73;;;;;;;30.98;40.62;102107.47;5073136;28;20028;-76
2022/08/28 10:23:13;;;;;;;21.90;20.88;;;;;;;31.40;40.59;102109.47;5079037;28;20128;-76
2022/08/28 10:26:08;;;;;;;28.27;27.17;;;;;;;32.27;39.90;102110.16;5077605;28;20064;-76
2022/08/28 10:29:06;;;;;;;23.13;22.08;;;;;;;30.87;41.25;102113.91;5081988;28;20279;-76
2022/08/28 10:31:48;;;;;;;26.08;25.00;;;;;;;31.68;39.49;102107.56;5080079;28;20032;-76
2022/08/28 10:34:37;;;;;;;27.33;26.23;;;;;;;33.53;38.24;102107.16;5077465;28;20032;-76
2022/08/28 10:37:18;;;;;;;29.73;28.45;;;;;;;34.46;37.55;102107.78;5074127;28;20104;-76
2022/08/28 10:39:58;;;;;;;33.65;32.35;;;;;;;35.27;36.04;102088.41;5083839;28;20112;-76
2022/08/28 10:42:32;;;;;;;33.70;32.03;;;;;;;33.91;37.07;102107.69;5076107;28;20038;-76
2022/08/28 10:45:11;;;;;;;30.52;29.23;;;;;;;32.57;38.23;102097.72;5079085;28;20029;-76
2022/08/28 10:47:41;;;;;;;30.20;28.93;;;;;;;33.64;37.67;102107.19;5074004;28;20439;-76
2022/08/28 10:50:27;;;;;;;27.17;26.08;;;;;;;32.94;39.60;102102.19;5081558;28;20027;-77
2022/08/28 10:53:00;;;;;;;28.17;26.88;;;;;;;32.61;39.51;102096.09;5079634;28;20028;-76
2022/08/28 10:55:33;;;;;;;23.02;22.08;;;;;;;32.46;39.91;102112.41;5072767;28;20096;-76
2022/08/28 10:58:03;;;;;;;26.35;25.15;;;;;;;32.47;39.01;102112.13;5082842;28;20032;-76
2022/08/28 11:00:30;;;;;;;23.15;22.25;;;;;;;31.57;40.50;102109.38;5078072;28;20024;-76
2022/08/28 11:02:59;;;;;;;25.83;24.63;;;;;;;33.22;38.77;102083.66;5080120;28;20376;-76
2022/08/28 11:05:30;;;;;;;28.63;27.42;;;;;;;33.93;37.79;102108.22;5078804;28;20046;-76
2022/08/28 11:08:00;;;;;;;31.08;29.88;;;;;;;32.99;38.07;102113.13;5074010;28;20020;-76
2022/08/28 11:10:28;;;;;;;;;;;;;;;33.23;38.42;102109.91;5078417;28;20013;-76
2022/08/28 11:12:54;;;;;;;24.90;23.80;;;;;;;32.96;37.35;102103.53;5064160;28;20224;-76
2022/08/28 11:15:26;;;;;;;26.40;25.30;;;;;;;34.10;37.85;102101.59;5080783;28;20043;-76
2022/08/28 11:17:53;;;;;;;25.85;24.85;;;;;;;32.96;39.12;102109.00;5075707;28;20074;-76
2022/08/28 11:20:24;;;;;;;21.65;20.70;;;;;;;31.19;40.20;102118.59;5075795;28;20040;-76
2022/08/28 11:23:06;;;;;;;18.42;17.70;;;;;;;31.27;40.95;102109.91;5076896;28;20091;-76
2022/08/28 11:25:44;;;;;;;20.52;19.55;;;;;;;31.97;39.42;102116.22;5077643;28;20016;-76
2022/08/28 11:28:38;;;;;;;21.90;20.75;;;;;;;33.02;38.90;102106.31;5081629;28;20052;-76